Time;durP1;ratioP1;P1;durP2;ratioP2;P2;SDS_P1;SDS_P2;PMS_P1;PMS_P2;Temp;Humidity;BMP_temperature;BMP_pressure;BME280_temperature;BME280_humidity;BME280_pressure;Samples;Min_cycle;Max_cycle;Signal;HPM_P1;HPM_P2
2023/01/11 00:02:13;;;;;;;34.40;19.25;;;0.00;75.70;;;;;;5075369;28;20047;-13
2023/01/11 00:04:40;;;;;;;32.33;18.90;;;0.00;75.90;;;;;;5075064;28;20493;-13
2023/01/11 00:07:06;;;;;;;39.13;20.63;;;0.00;76.00;;;;;;5074865;28;20504;-13
2023/01/11 00:09:32;;;;;;;44.85;22.00;;;0.10;76.50;;;;;;5075063;28;20027;-13
2023/01/11 00:11:57;;;;;;;34.67;20.10;;;0.10;76.30;;;;;;5074883;28;20035;-13
2023/01/11 00:14:23;;;;;;;39.22;21.23;;;0.10;76.20;;;;;;5074878;28;20025;-13
2023/01/11 00:16:49;;;;;;;34.90;20.77;;;0.10;76.20;;;;;;5075589;28;20021;-12
2023/01/11 00:19:15;;;;;;;37.33;20.77;;;0.10;76.20;;;;;;5074489;28;20079;-12
2023/01/11 00:21:41;;;;;;;33.28;18.73;;;0.10;76.10;;;;;;5074874;28;20076;-14
2023/01/11 00:24:07;;;;;;;33.15;18.73;;;0.10;76.20;;;;;;5074658;28;20114;-14
2023/01/11 00:26:33;;;;;;;40.05;21.77;;;0.10;76.10;;;;;;5074628;28;20074;-13
2023/01/11 00:28:58;;;;;;;42.88;22.10;;;0.10;76.20;;;;;;5074970;28;20017;-13
2023/01/11 00:31:24;;;;;;;39.22;21.20;;;0.10;76.00;;;;;;5074556;28;20388;-13
2023/01/11 00:33:50;;;;;;;38.00;20.38;;;0.10;76.20;;;;;;5074502;28;20052;-13
2023/01/11 00:36:16;;;;;;;38.40;20.67;;;0.10;76.10;;;;;;5074630;28;20104;-13
2023/01/11 00:38:52;;;;;;;43.90;25.25;;;0.10;76.10;;;;;;5073185;28;20032;-13
2023/01/11 00:49:34;;;;;;;37.55;21.25;;;0.00;76.50;;;;;;5074661;28;20032;-13
2023/01/11 00:52:00;;;;;;;30.55;18.02;;;0.00;76.40;;;;;;5074346;28;20016;-14
2023/01/11 00:54:26;;;;;;;38.03;22.42;;;0.00;76.30;;;;;;5074393;28;20020;-13
2023/01/11 00:56:52;;;;;;;39.25;22.33;;;0.00;76.30;;;;;;5074075;28;20021;-14
2023/01/11 00:59:24;;;;;;;36.55;22.25;;;0.10;76.50;;;;;;5074572;28;20495;-13
2023/01/11 01:01:50;;;;;;;39.95;23.15;;;0.20;76.50;;;;;;5074178;28;20037;-12
2023/01/11 01:04:16;;;;;;;41.90;23.02;;;0.30;76.40;;;;;;5074055;28;20064;-13
2023/01/11 01:06:42;;;;;;;39.70;22.48;;;0.30;76.50;;;;;;5073752;28;20029;-13
2023/01/11 01:09:08;;;;;;;43.88;22.88;;;0.30;76.50;;;;;;5073951;28;20028;-13
2023/01/11 01:11:34;;;;;;;43.85;23.92;;;0.40;76.40;;;;;;5073810;28;20488;-13
2023/01/11 01:16:46;;;;;;;33.22;18.60;;;0.50;75.90;;;;;;5073843;28;20082;-14
2023/01/11 01:19:13;;;;;;;37.00;20.48;;;0.50;75.80;;;;;;5073188;28;20395;-13
2023/01/11 01:21:39;;;;;;;33.33;20.13;;;0.50;75.90;;;;;;5073835;28;20029;-13
2023/01/11 01:24:05;;;;;;;37.78;21.30;;;0.50;75.90;;;;;;5073460;28;20024;-13
2023/01/11 01:26:31;;;;;;;39.30;20.88;;;0.50;75.80;;;;;;5073299;28;20412;-13
2023/01/11 01:28:57;;;;;;;29.58;17.15;;;0.40;76.00;;;;;;5073516;28;20036;-13
2023/01/11 01:31:23;;;;;;;35.92;21.35;;;0.40;75.80;;;;;;5073191;28;20048;-14
2023/01/11 01:33:49;;;;;;;40.90;22.20;;;0.40;75.90;;;;;;5073523;28;20021;-13
2023/01/11 01:36:15;;;;;;;42.10;23.25;;;0.30;75.90;;;;;;5073644;28;20032;-13
2023/01/11 01:38:41;;;;;;;33.10;18.50;;;0.30;76.60;;;;;;5073496;28;20025;-13
2023/01/11 01:41:07;;;;;;;27.52;15.60;;;0.20;76.40;;;;;;5072516;28;20094;-13
2023/01/11 01:43:48;;;;;;;26.30;15.20;;;0.20;76.20;;;;;;5072863;28;20028;-13
2023/01/11 01:46:15;;;;;;;31.13;17.48;;;0.10;76.30;;;;;;5072978;28;20388;-12
2023/01/11 01:48:43;;;;;;;38.08;21.00;;;0.10;76.40;;;;;;5073263;28;20028;-12
2023/01/11 01:51:13;;;;;;;39.10;22.27;;;0.00;76.60;;;;;;5072753;28;20031;-13
2023/01/11 01:53:45;;;;;;;42.40;21.48;;;0.00;77.30;;;;;;5073393;28;20476;-13
2023/01/11 01:56:22;;;;;;;35.17;20.75;;;0.00;77.20;;;;;;5072930;28;20123;-14
2023/01/11 01:58:52;;;;;;;31.30;18.02;;;-0.10;77.00;;;;;;5073012;28;20029;-12
2023/01/11 02:04:08;;;;;;;33.55;20.35;;;-0.20;77.20;;;;;;5073275;28;20031;-13
2023/01/11 02:06:35;;;;;;;33.40;20.02;;;-0.20;77.30;;;;;;5073019;28;20024;-13
2023/01/11 02:09:07;;;;;;;37.13;20.08;;;-0.20;77.20;;;;;;5072548;28;20028;-13
2023/01/11 02:11:42;;;;;;;38.05;19.83;;;-0.30;77.40;;;;;;5072677;28;20484;-12
2023/01/11 02:14:11;;;;;;;33.33;20.05;;;-0.30;77.60;;;;;;5073133;28;20037;-13
2023/01/11 02:16:37;;;;;;;33.88;19.20;;;-0.30;77.80;;;;;;5073008;28;20127;-13
2023/01/11 02:19:04;;;;;;;31.10;18.88;;;-0.30;77.90;;;;;;5072295;28;20030;-13
2023/01/11 02:22:12;;;;;;;27.83;16.17;;;-0.30;78.40;;;;;;5072692;28;20509;-13
2023/01/11 02:24:59;;;;;;;30.67;17.35;;;-0.40;78.10;;;;;;5033772;28;20060;-14
2023/01/11 02:27:53;;;;;;;24.77;14.20;;;-0.20;78.00;;;;;;5050494;28;20032;-12
2023/01/11 02:30:51;;;;;;;22.75;12.45;;;-0.20;77.70;;;;;;5050945;28;20040;-12
2023/01/11 02:33:39;;;;;;;26.42;15.18;;;-0.10;77.50;;;;;;5050479;28;20029;-13
2023/01/11 02:36:05;;;;;;;26.52;14.27;;;0.00;77.30;;;;;;5050507;28;20108;-13
2023/01/11 02:38:40;;;;;;;22.02;13.32;;;0.00;77.10;;;;;;5050207;28;20505;-13
2023/01/11 02:47:46;;;;;;;25.48;14.40;;;0.00;76.70;;;;;;5050870;28;20607;-12
2023/01/11 02:50:14;;;;;;;24.35;13.80;;;0.00;76.50;;;;;;5042362;28;20059;-12
2023/01/11 02:53:11;;;;;;;24.13;13.38;;;0.10;76.40;;;;;;5050510;28;20159;-14
2023/01/11 02:55:42;;;;;;;23.45;13.70;;;0.10;76.40;;;;;;5054816;28;20025;-13
2023/01/11 02:58:10;;;;;;;24.00;13.90;;;0.10;76.60;;;;;;5054042;28;20135;-12
2023/01/11 03:00:41;;;;;;;23.98;13.70;;;0.10;76.50;;;;;;5069964;28;20036;-13
2023/01/11 03:03:15;;;;;;;25.73;14.82;;;0.00;76.40;;;;;;5076294;28;20048;-13
2023/01/11 03:05:49;;;;;;;16.63;10.30;;;0.00;76.40;;;;;;5076672;28;20017;-13
2023/01/11 03:08:57;;;;;;;22.33;13.80;;;0.00;76.50;;;;;;5076148;28;20029;-13
2023/01/11 03:14:29;;;;;;;24.45;14.07;;;-0.10;76.50;;;;;;5076591;28;20466;-13
2023/01/11 03:17:10;;;;;;;25.52;14.43;;;-0.10;76.70;;;;;;5076182;28;20095;-12
2023/01/11 03:19:40;;;;;;;21.92;13.68;;;-0.10;76.80;;;;;;5076116;28;20052;-11
2023/01/11 03:22:18;;;;;;;23.90;13.50;;;-0.10;76.80;;;;;;5076024;28;20044;-12
2023/01/11 03:24:50;;;;;;;16.48;8.43;;;-0.10;77.00;;;;;;5075807;28;20515;-13
2023/01/11 03:27:34;;;;;;;22.88;13.10;;;-0.10;76.80;;;;;;5075906;28;20029;-13
2023/01/11 03:30:14;;;;;;;20.15;11.95;;;-0.20;76.90;;;;;;5075922;28;20055;-12
2023/01/11 03:33:01;;;;;;;16.60;9.93;;;-0.20;76.90;;;;;;5076208;28;20499;-13
2023/01/11 03:35:30;;;;;;;18.88;10.65;;;-0.30;76.80;;;;;;5075705;28;20020;-13
2023/01/11 03:38:07;;;;;;;19.67;11.30;;;-0.30;76.90;;;;;;5076287;28;20025;-13
2023/01/11 03:40:41;;;;;;;21.65;13.25;;;-0.30;77.10;;;;;;5075390;28;20511;-12
2023/01/11 03:43:10;;;;;;;24.55;13.48;;;-0.40;77.20;;;;;;5075319;28;20017;-12
2023/01/11 03:45:49;;;;;;;24.02;10.85;;;-0.40;77.00;;;;;;5075732;28;20032;-12
2023/01/11 03:48:37;;;;;;;19.83;10.65;;;-0.50;77.10;;;;;;5074144;28;20031;-12
2023/01/11 03:51:06;;;;;;;26.13;12.80;;;-0.50;77.10;;;;;;5075186;28;20035;-11
2023/01/11 03:53:36;;;;;;;26.90;14.02;;;-0.50;77.30;;;;;;5076184;28;20044;-12
2023/01/11 03:56:08;;;;;;;23.17;12.27;;;-0.60;77.30;;;;;;5075148;28;20024;-12
2023/01/11 03:58:34;;;;;;;16.88;11.02;;;-0.60;77.30;;;;;;5075563;28;20081;-12
2023/01/11 04:01:01;;;;;;;20.38;11.48;;;-0.50;77.70;;;;;;5074912;28;20039;-12
2023/01/11 04:03:27;;;;;;;24.77;12.45;;;-0.40;77.70;;;;;;5075273;28;20107;-12
2023/01/11 04:05:57;;;;;;;24.73;13.10;;;-0.50;77.90;;;;;;5074614;28;20082;-13
2023/01/11 04:08:23;;;;;;;18.38;10.90;;;-0.50;77.70;;;;;;5075806;28;20373;-12
2023/01/11 04:10:48;;;;;;;20.23;11.25;;;-0.60;77.60;;;;;;5074965;28;20025;-12
2023/01/11 04:13:14;;;;;;;25.70;14.27;;;-0.50;77.60;;;;;;5075098;28;20032;-12
2023/01/11 04:15:40;;;;;;;24.45;13.63;;;-0.50;77.70;;;;;;5075165;28;20021;-13
2023/01/11 04:18:06;;;;;;;25.77;14.68;;;-0.60;77.60;;;;;;5075178;28;20117;-12
2023/01/11 04:20:34;;;;;;;23.65;13.45;;;-0.60;77.70;;;;;;5074463;28;20056;-12
2023/01/11 04:23:00;;;;;;;24.17;12.50;;;-0.60;77.90;;;;;;5074760;28;20048;-12
2023/01/11 04:25:26;;;;;;;21.27;12.00;;;-0.60;78.00;;;;;;5074592;28;20048;-13
2023/01/11 04:27:52;;;;;;;20.90;12.77;;;-0.60;78.00;;;;;;5074579;28;20047;-12
2023/01/11 04:30:18;;;;;;;18.85;11.00;;;-0.60;77.70;;;;;;5074529;28;20028;-11
2023/01/11 04:32:43;;;;;;;19.13;10.77;;;-0.60;77.60;;;;;;5074941;28;20104;-12
2023/01/11 04:35:09;;;;;;;19.98;11.48;;;-0.60;77.70;;;;;;5074218;28;20032;-12
2023/01/11 04:37:35;;;;;;;21.90;12.43;;;-0.60;77.90;;;;;;5073105;28;20132;-12
2023/01/11 04:40:01;;;;;;;16.65;10.90;;;-0.60;77.90;;;;;;5074896;28;20055;-12
2023/01/11 04:42:27;;;;;;;19.20;10.65;;;-0.60;77.70;;;;;;5074504;28;20128;-12
2023/01/11 04:44:53;;;;;;;22.45;11.60;;;-0.70;77.60;;;;;;5074729;28;20456;-11
2023/01/11 04:47:21;;;;;;;25.58;12.35;;;-0.70;77.80;;;;;;5074232;28;20039;-12
2023/01/11 04:49:48;;;;;;;22.10;10.77;;;-0.70;77.60;;;;;;5074118;28;20028;-12
2023/01/11 04:52:16;;;;;;;17.88;10.90;;;-0.70;77.70;;;;;;5074331;28;20097;-12
2023/01/11 04:54:42;;;;;;;21.25;10.77;;;-0.70;77.70;;;;;;5074104;28;20028;-11
2023/01/11 04:57:12;;;;;;;17.13;9.25;;;-0.80;77.90;;;;;;5072602;28;20491;-12
2023/01/11 04:59:38;;;;;;;16.77;9.27;;;-0.70;77.80;;;;;;5073935;28;20111;-12
2023/01/11 05:02:04;;;;;;;18.10;10.98;;;-0.70;78.00;;;;;;5073214;28;20103;-13
2023/01/11 05:04:30;;;;;;;16.13;8.30;;;-0.70;78.00;;;;;;5072736;28;20024;-12
2023/01/11 05:06:56;;;;;;;14.82;8.23;;;-0.80;77.80;;;;;;5073706;28;20028;-13
2023/01/11 05:09:22;;;;;;;16.65;9.60;;;-0.70;77.80;;;;;;5073781;28;20029;-13
2023/01/11 05:11:48;;;;;;;17.02;9.38;;;-0.70;78.00;;;;;;5073513;28;20028;-13
2023/01/11 05:14:15;;;;;;;13.60;7.95;;;-0.80;77.90;;;;;;5073733;28;20090;-12
2023/01/11 05:16:41;;;;;;;17.80;8.90;;;-0.80;77.90;;;;;;5073426;28;20393;-12
2023/01/11 05:19:09;;;;;;;19.15;9.10;;;-0.90;78.00;;;;;;5073215;28;20074;-12
2023/01/11 05:21:38;;;;;;;16.40;8.63;;;-0.90;78.00;;;;;;5073723;28;20037;-12
2023/01/11 05:24:06;;;;;;;14.63;7.57;;;-0.90;78.00;;;;;;5073459;28;20476;-12
2023/01/11 05:26:34;;;;;;;15.35;7.78;;;-0.90;78.10;;;;;;5073424;28;20492;-11
2023/01/11 05:29:02;;;;;;;9.85;5.65;;;-0.90;78.20;;;;;;5071994;28;20127;-11
2023/01/11 05:31:29;;;;;;;11.18;6.18;;;-0.90;78.20;;;;;;5073870;28;20095;-13
2023/01/11 05:33:56;;;;;;;12.50;6.65;;;-0.90;78.30;;;;;;5073310;28;20384;-12
2023/01/11 05:36:24;;;;;;;17.73;8.60;;;-0.90;78.20;;;;;;5073500;28;20024;-12
2023/01/11 05:38:51;;;;;;;12.40;7.50;;;-0.80;78.30;;;;;;5073208;28;20032;-12
2023/01/11 05:41:19;;;;;;;17.23;8.68;;;-0.80;78.20;;;;;;5071764;28;20029;-12
2023/01/11 05:46:33;;;;;;;15.38;7.43;;;-0.80;78.40;;;;;;5073605;28;20046;-13
2023/01/11 05:48:59;;;;;;;16.35;8.27;;;-0.90;78.60;;;;;;5072764;28;20536;-12
2023/01/11 05:51:26;;;;;;;15.55;6.85;;;-0.90;78.40;;;;;;5073332;28;20021;-12
2023/01/11 05:53:52;;;;;;;14.07;7.88;;;-0.90;78.20;;;;;;5073406;28;20093;-12
2023/01/11 05:56:18;;;;;;;13.18;7.78;;;-0.90;78.30;;;;;;5071586;28;20460;-12
2023/01/11 05:58:49;;;;;;;13.55;7.78;;;-0.90;78.40;;;;;;5072958;28;20147;-13
2023/01/11 06:01:16;;;;;;;17.27;7.38;;;-1.00;78.40;;;;;;5072873;28;20040;-12
2023/01/11 06:03:42;;;;;;;18.58;8.43;;;-0.90;78.50;;;;;;5073113;28;20040;-12
2023/01/11 06:06:08;;;;;;;12.35;7.10;;;-1.00;78.50;;;;;;5073307;28;20039;-12
2023/01/11 06:08:34;;;;;;;16.40;7.97;;;-1.00;78.40;;;;;;5072965;28;20029;-12
2023/01/11 06:11:00;;;;;;;16.92;8.77;;;-0.90;78.40;;;;;;5072835;28;20016;-13
2023/01/11 06:13:26;;;;;;;16.23;7.90;;;-1.00;78.50;;;;;;5072643;28;20020;-13
2023/01/11 06:15:59;;;;;;;18.88;8.68;;;-0.90;78.70;;;;;;5073134;28;20038;-13
2023/01/11 06:18:26;;;;;;;14.20;7.13;;;-0.90;78.50;;;;;;5073165;28;20020;-12
2023/01/11 06:20:53;;;;;;;15.70;7.70;;;-0.90;78.50;;;;;;5070965;28;20048;-13
2023/01/11 06:23:20;;;;;;;15.02;8.00;;;-0.90;78.40;;;;;;5072596;28;20540;-12
2023/01/11 06:25:46;;;;;;;17.58;8.52;;;-0.90;78.60;;;;;;5072666;28;20067;-12
2023/01/11 06:28:12;;;;;;;16.48;8.63;;;-0.80;78.70;;;;;;5072369;28;20056;-13
2023/01/11 06:30:39;;;;;;;17.10;8.52;;;-0.80;78.50;;;;;;5072523;28;20123;-12
2023/01/11 06:33:05;;;;;;;13.10;7.20;;;-0.80;78.30;;;;;;5072286;28;20024;-12
2023/01/11 06:35:39;;;;;;;13.57;7.28;;;-0.80;78.30;;;;;;5072933;28;20099;-13
2023/01/11 06:38:07;;;;;;;11.75;6.00;;;-0.80;78.20;;;;;;5072318;28;20065;-13
2023/01/11 06:40:34;;;;;;;13.98;7.18;;;-0.80;78.50;;;;;;5072453;28;20119;-12
2023/01/11 06:43:00;;;;;;;16.77;8.07;;;-0.80;78.50;;;;;;5072278;28;20415;-13
2023/01/11 06:45:26;;;;;;;17.55;9.00;;;-0.80;78.60;;;;;;5072371;28;20035;-13
2023/01/11 06:47:52;;;;;;;18.35;8.38;;;-0.80;78.60;;;;;;5072476;28;20033;-13
2023/01/11 06:50:18;;;;;;;13.98;8.05;;;-0.80;78.50;;;;;;5072571;28;20033;-12
2023/01/11 06:52:52;;;;;;;14.10;6.68;;;-0.80;78.80;;;;;;5072228;28;20384;-12
2023/01/11 06:55:19;;;;;;;18.00;8.77;;;-0.80;78.80;;;;;;5073203;28;20104;-12
2023/01/11 06:57:45;;;;;;;23.45;9.05;;;-0.70;78.70;;;;;;5072644;28;20103;-13
2023/01/11 07:00:11;;;;;;;23.38;8.60;;;-0.70;78.50;;;;;;5071037;28;20524;-13
2023/01/11 07:02:37;;;;;;;12.90;6.80;;;-0.70;78.60;;;;;;5072547;28;20048;-13
2023/01/11 07:05:03;;;;;;;12.35;7.15;;;-0.60;78.70;;;;;;5071939;28;20021;-12
2023/01/11 07:07:29;;;;;;;19.00;9.05;;;-0.60;78.70;;;;;;5072456;28;20055;-13
2023/01/11 07:09:55;;;;;;;13.80;7.95;;;-0.50;79.30;;;;;;5072359;28;20441;-13
2023/01/11 07:12:21;;;;;;;15.82;8.48;;;-0.50;79.10;;;;;;5070720;28;20419;-13
2023/01/11 07:14:47;;;;;;;20.10;11.23;;;-0.40;79.10;;;;;;5071766;28;20021;-13
2023/01/11 07:17:13;;;;;;;20.30;10.93;;;-0.40;79.20;;;;;;5072234;28;20096;-13
2023/01/11 07:19:39;;;;;;;24.10;13.80;;;-0.30;79.40;;;;;;5072057;28;20056;-12
2023/01/11 07:22:05;;;;;;;24.15;12.10;;;-0.20;79.30;;;;;;5072221;28;20040;-13
2023/01/11 07:24:31;;;;;;;29.08;15.40;;;-0.10;79.30;;;;;;5072014;28;20049;-12
2023/01/11 07:27:00;;;;;;;27.70;14.82;;;0.00;79.10;;;;;;5071576;28;20028;-12
2023/01/11 07:29:26;;;;;;;20.70;10.88;;;0.00;79.20;;;;;;5071867;28;20476;-13
2023/01/11 07:31:52;;;;;;;23.35;10.88;;;0.10;79.10;;;;;;5070612;28;20036;-13
2023/01/11 07:34:18;;;;;;;18.63;9.90;;;0.20;79.20;;;;;;5072387;28;20391;-13
2023/01/11 07:36:44;;;;;;;21.77;9.48;;;0.40;79.30;;;;;;5072214;28;20190;-13
2023/01/11 07:39:10;;;;;;;15.98;8.30;;;0.60;79.70;;;;;;5072080;28;20052;-12
2023/01/11 07:44:20;;;;;;;18.85;9.73;;;0.80;78.90;;;;;;5075826;28;20456;-12
2023/01/11 07:46:46;;;;;;;25.33;11.93;;;0.80;78.80;;;;;;5075259;28;20496;-14
2023/01/11 07:49:12;;;;;;;15.18;8.38;;;0.90;78.60;;;;;;5075675;28;20067;-13
2023/01/11 07:51:38;;;;;;;17.65;9.05;;;1.00;78.20;;;;;;5075175;28;20059;-13
2023/01/11 07:54:05;;;;;;;16.63;9.43;;;1.10;78.10;;;;;;5075817;28;20064;-13
2023/01/11 07:56:30;;;;;;;21.15;9.80;;;1.30;78.00;;;;;;5075088;28;20028;-13
2023/01/11 07:58:57;;;;;;;16.23;8.73;;;1.40;77.70;;;;;;5074995;28;20020;-13
2023/01/11 08:01:23;;;;;;;12.98;7.60;;;1.50;77.30;;;;;;5073659;28;20040;-14
2023/01/11 08:03:50;;;;;;;11.65;6.45;;;1.60;77.40;;;;;;5075241;28;20024;-13
2023/01/11 08:06:15;;;;;;;12.90;7.25;;;1.80;77.10;;;;;;5075051;28;20025;-14
2023/01/11 08:08:43;;;;;;;13.55;8.05;;;1.90;76.80;;;;;;5074967;28;20116;-13
2023/01/11 08:16:38;;;;;;;22.98;11.73;;;2.20;76.40;;;;;;5075238;28;20349;-13
2023/01/11 08:19:04;;;;;;;25.55;12.93;;;2.40;76.20;;;;;;5074241;28;20020;-14
2023/01/11 08:21:30;;;;;;;31.48;13.85;;;2.50;75.90;;;;;;5074896;28;20044;-14
2023/01/11 08:23:58;;;;;;;26.80;12.40;;;2.60;75.90;;;;;;5074936;28;20028;-13
2023/01/11 08:26:25;;;;;;;18.63;10.55;;;2.80;75.70;;;;;;5074453;28;20029;-13
2023/01/11 08:28:53;;;;;;;26.05;10.40;;;2.90;75.20;;;;;;5074470;28;20465;-14
2023/01/11 08:31:19;;;;;;;15.57;8.40;;;3.10;74.80;;;;;;5075081;28;20420;-13
2023/01/11 08:33:45;;;;;;;16.50;8.88;;;3.30;74.40;;;;;;5074719;28;20100;-12
2023/01/11 08:36:12;;;;;;;14.75;7.57;;;3.50;74.40;;;;;;5074673;28;20081;-13
2023/01/11 08:38:38;;;;;;;17.27;9.93;;;3.70;74.20;;;;;;5074667;28;20127;-13
2023/01/11 08:41:12;;;;;;;14.50;8.32;;;3.90;74.10;;;;;;5074024;28;20024;-14
2023/01/11 08:43:39;;;;;;;11.40;6.90;;;4.10;73.30;;;;;;5074180;28;20071;-14
2023/01/11 08:46:09;;;;;;;18.77;8.68;;;4.40;73.40;;;;;;5072893;28;20560;-13
2023/01/11 08:48:35;;;;;;;17.13;8.90;;;4.60;73.00;;;;;;5074265;28;20021;-12
2023/01/11 08:51:01;;;;;;;14.30;7.15;;;4.80;72.80;;;;;;5073930;28;20055;-13
2023/01/11 08:53:27;;;;;;;11.02;6.95;;;5.00;72.50;;;;;;5074089;28;20468;-14
2023/01/11 08:55:53;;;;;;;15.85;8.60;;;5.20;72.00;;;;;;5074126;28;20040;-12
2023/01/11 08:58:20;;;;;;;14.35;9.18;;;5.40;71.30;;;;;;5074178;28;20093;-13
2023/01/11 09:00:46;;;;;;;15.70;8.95;;;5.60;70.90;;;;;;5073650;28;20469;-14
2023/01/11 09:03:12;;;;;;;15.88;8.73;;;5.80;70.60;;;;;;5073835;28;20039;-14
2023/01/11 09:05:39;;;;;;;14.27;8.52;;;6.00;70.40;;;;;;5073905;28;20056;-13
2023/01/11 09:08:06;;;;;;;14.13;8.18;;;6.20;70.40;;;;;;5074097;28;20542;-13
2023/01/11 09:10:32;;;;;;;14.73;7.43;;;6.50;70.00;;;;;;5073736;28;20029;-13
2023/01/11 09:12:58;;;;;;;13.70;6.90;;;6.70;69.30;;;;;;5073415;28;20108;-13
2023/01/11 09:15:25;;;;;;;18.88;8.27;;;6.80;68.50;;;;;;5073677;28;20123;-13
2023/01/11 09:17:51;;;;;;;12.40;6.97;;;6.90;67.30;;;;;;5073823;28;20017;-12
2023/01/11 09:20:19;;;;;;;12.80;7.22;;;7.00;66.30;;;;;;5073452;28;20378;-12
2023/01/11 09:22:46;;;;;;;12.20;7.60;;;7.10;66.30;;;;;;5073511;28;20442;-12
2023/01/11 09:25:12;;;;;;;16.17;8.85;;;7.20;64.90;;;;;;5073697;28;20029;-13
2023/01/11 09:27:45;;;;;;;16.63;9.05;;;7.20;64.70;;;;;;5073746;28;20362;-13
2023/01/11 09:30:13;;;;;;;14.57;8.20;;;7.30;64.50;;;;;;5073425;28;20476;-12
2023/01/11 09:32:40;;;;;;;14.75;8.85;;;7.30;65.60;;;;;;5073239;28;20020;-12
2023/01/11 09:35:06;;;;;;;21.13;8.98;;;7.40;66.10;;;;;;5073071;28;20032;-11
2023/01/11 09:37:34;;;;;;;15.68;8.85;;;7.40;66.80;;;;;;5073625;28;20037;-12
2023/01/11 09:40:00;;;;;;;15.00;8.82;;;7.60;66.90;;;;;;5073143;28;20396;-11
2023/01/11 09:42:35;;;;;;;19.20;9.80;;;7.80;67.10;;;;;;5073348;28;20044;-12
2023/01/11 09:45:27;;;;;;;17.92;10.05;;;8.00;66.70;;;;;;5072985;28;20033;-14
2023/01/11 09:48:10;;;;;;;16.25;9.23;;;8.20;65.30;;;;;;5073091;28;20507;-12
2023/01/11 09:50:40;;;;;;;20.25;8.88;;;8.40;64.90;;;;;;5073331;28;20366;-12
2023/01/11 09:53:33;;;;;;;14.13;8.32;;;8.60;64.90;;;;;;5072852;28;20090;-13
2023/01/11 09:56:03;;;;;;;14.30;8.13;;;8.90;64.60;;;;;;5072919;28;20429;-14
2023/01/11 09:58:36;;;;;;;22.38;11.48;;;9.00;64.90;;;;;;5072839;28;20056;-13
2023/01/11 10:01:13;;;;;;;19.42;9.30;;;9.20;64.70;;;;;;5072537;28;20044;-12
2023/01/11 10:03:47;;;;;;;19.75;10.55;;;9.30;64.30;;;;;;5072410;28;20020;-12
2023/01/11 10:06:27;;;;;;;16.83;9.75;;;9.40;64.70;;;;;;5073129;28;20060;-12
2023/01/11 10:09:12;;;;;;;15.38;9.55;;;9.40;64.20;;;;;;5072610;28;20468;-12
2023/01/11 10:12:22;;;;;;;15.30;9.13;;;9.50;63.70;;;;;;5073192;28;20070;-12
2023/01/11 10:15:19;;;;;;;16.73;8.32;;;9.60;63.50;;;;;;5072474;28;20040;-12
2023/01/11 10:18:03;;;;;;;14.32;8.52;;;9.70;62.50;;;;;;5073352;28;20039;-12
2023/01/11 10:20:40;;;;;;;17.50;8.93;;;9.60;57.00;;;;;;5072758;28;20056;-12
2023/01/11 10:23:35;;;;;;;18.13;8.65;;;9.60;61.80;;;;;;5072394;28;20124;-11
2023/01/11 10:26:08;;;;;;;14.23;9.18;;;9.80;62.40;;;;;;5072557;28;20031;-11
2023/01/11 10:28:53;;;;;;;;;;;10.00;62.30;;;;;;5072835;28;20039;-13
2023/01/11 10:31:48;;;;;;;18.65;8.85;;;10.20;61.50;;;;;;5072524;28;19908;-12
2023/01/11 10:34:49;;;;;;;14.73;8.55;;;10.40;61.10;;;;;;5072359;28;20033;-12
2023/01/11 10:41:03;;;;;;;13.88;8.43;;;10.60;59.90;;;;;;5072404;28;20051;-12
2023/01/11 10:43:23;;;;;;;18.52;10.50;;;10.80;60.80;;;;;;5071768;28;20507;-13
2023/01/11 10:46:16;;;;;;;15.82;8.85;;;11.00;57.70;;;;;;5072649;28;20039;-12
2023/01/11 10:48:45;;;;;;;13.38;7.78;;;11.20;55.20;;;;;;5070192;28;20048;-13
2023/01/11 10:51:30;;;;;;;11.70;7.32;;;11.50;59.00;;;;;;5072534;28;20100;-13
2023/01/11 10:54:12;;;;;;;13.25;7.40;;;11.80;56.80;;;;;;5072244;28;20020;-12
2023/01/11 10:56:50;;;;;;;10.85;7.03;;;12.00;57.00;;;;;;5072062;28;20423;-12
2023/01/11 10:59:33;;;;;;;9.88;5.22;;;12.20;56.40;;;;;;5072655;28;20112;-13
2023/01/11 11:02:13;;;;;;;8.82;5.60;;;12.20;54.20;;;;;;5072200;28;20480;-12
2023/01/11 11:04:55;;;;;;;10.57;5.78;;;12.30;52.70;;;;;;5072507;28;20033;-12
2023/01/11 11:07:40;;;;;;;9.57;5.82;;;12.40;51.10;;;;;;5072165;28;20444;-12
2023/01/11 11:10:05;;;;;;;12.30;6.75;;;12.60;53.90;;;;;;5072439;28;20023;-12
2023/01/11 11:12:36;;;;;;;8.30;5.38;;;12.70;52.10;;;;;;5072135;28;20099;-13
2023/01/11 11:15:16;;;;;;;10.80;5.60;;;12.80;49.80;;;;;;5074375;28;20032;-13
2023/01/11 11:17:50;;;;;;;8.45;5.05;;;12.90;52.20;;;;;;5075876;28;20027;-12
2023/01/11 11:20:17;;;;;;;6.70;4.13;;;13.00;50.80;;;;;;5075575;28;20055;-12
2023/01/11 11:22:43;;;;;;;7.13;4.35;;;13.20;49.50;;;;;;5075943;28;20041;-14
2023/01/11 11:25:26;;;;;;;8.45;4.57;;;13.30;49.70;;;;;;5075600;28;20040;-12
2023/01/11 11:28:02;;;;;;;8.32;4.50;;;13.40;48.20;;;;;;5075693;28;20030;-12
2023/01/11 11:30:41;;;;;;;9.57;5.00;;;13.30;49.80;;;;;;5075884;28;20048;-12
2023/01/11 11:33:19;;;;;;;9.50;5.53;;;13.40;49.80;;;;;;5075512;28;20468;-13
2023/01/11 11:35:57;;;;;;;8.63;5.50;;;13.50;45.50;;;;;;5076021;28;20012;-13
2023/01/11 11:38:27;;;;;;;10.25;5.32;;;13.60;48.70;;;;;;5075861;28;20040;-12
2023/01/11 11:41:08;;;;;;;10.18;5.40;;;13.70;50.40;;;;;;5075161;28;20043;-14
2023/01/11 11:43:42;;;;;;;11.25;5.07;;;13.90;49.30;;;;;;5075327;28;20063;-12
2023/01/11 11:46:13;;;;;;;10.43;4.88;;;14.00;49.10;;;;;;5075364;28;20036;-12
2023/01/11 11:48:41;;;;;;;10.15;5.20;;;13.90;46.30;;;;;;5075605;28;20032;-12
2023/01/11 11:51:14;;;;;;;9.93;4.90;;;13.80;49.10;;;;;;5075005;28;20070;-13
2023/01/11 11:53:54;;;;;;;9.27;5.25;;;13.70;48.50;;;;;;5075671;28;20028;-12
2023/01/11 11:56:32;;;;;;;9.75;5.00;;;13.80;49.50;;;;;;5075601;28;20025;-11
2023/01/11 11:59:05;;;;;;;8.55;4.75;;;13.60;49.80;;;;;;5074868;28;20028;-13
2023/01/11 12:01:38;;;;;;;9.90;5.55;;;13.60;51.10;;;;;;5075153;28;20028;-12
2023/01/11 12:04:17;;;;;;;10.45;5.75;;;13.70;51.50;;;;;;5075373;28;20024;-12
2023/01/11 12:06:48;;;;;;;10.57;6.47;;;13.60;50.70;;;;;;5073825;28;20032;-12
2023/01/11 12:09:28;;;;;;;10.82;5.45;;;13.60;49.90;;;;;;5075333;28;20103;-12
2023/01/11 12:11:55;;;;;;;9.88;5.47;;;13.50;52.00;;;;;;5075063;28;20102;-13
2023/01/11 12:14:30;;;;;;;10.77;5.38;;;13.50;51.90;;;;;;5075338;28;20021;-12
2023/01/11 12:16:57;;;;;;;9.15;5.70;;;13.60;52.50;;;;;;5074707;28;20063;-13
2023/01/11 12:19:32;;;;;;;9.82;5.72;;;13.70;52.40;;;;;;5074539;28;20048;-12
2023/01/11 12:22:15;;;;;;;9.30;4.68;;;13.80;52.80;;;;;;5074848;28;20119;-12
2023/01/11 12:24:41;;;;;;;9.65;5.88;;;14.00;53.10;;;;;;5074780;28;20028;-12
2023/01/11 12:27:17;;;;;;;8.77;5.25;;;14.30;53.20;;;;;;5073622;28;20053;-13
2023/01/11 12:30:15;;;;;;;11.07;6.70;;;14.50;52.20;;;;;;5074935;28;20036;-13
2023/01/11 12:32:59;;;;;;;12.40;6.65;;;14.70;50.60;;;;;;5074731;28;20059;-12
2023/01/11 12:35:31;;;;;;;9.07;5.38;;;14.90;51.40;;;;;;5074394;28;20028;-13
2023/01/11 12:38:05;;;;;;;10.55;5.80;;;14.90;51.00;;;;;;5074780;28;20074;-12
2023/01/11 12:40:54;;;;;;;9.55;5.93;;;14.90;51.40;;;;;;5074309;28;20081;-12
2023/01/11 12:43:28;;;;;;;12.00;7.13;;;14.90;51.10;;;;;;5074565;28;20028;-12
2023/01/11 12:46:18;;;;;;;10.80;6.80;;;14.90;51.40;;;;;;5074691;28;20028;-13
2023/01/11 12:49:28;;;;;;;12.40;6.30;;;14.70;52.10;;;;;;5074227;28;20039;-13
2023/01/11 12:52:38;;;;;;;10.82;6.10;;;14.60;51.90;;;;;;5074201;28;20108;-11
2023/01/11 12:55:24;;;;;;;10.80;6.82;;;14.70;52.60;;;;;;5073904;28;20028;-13
2023/01/11 12:58:17;;;;;;;9.02;5.47;;;14.70;50.70;;;;;;5074018;28;20024;-11
2023/01/11 13:01:06;;;;;;;9.40;5.45;;;14.60;52.90;;;;;;5074079;28;20034;-13
2023/01/11 13:04:06;;;;;;;10.35;6.15;;;14.60;52.00;;;;;;5074039;28;20017;-12
2023/01/11 13:06:55;;;;;;;9.00;5.15;;;14.50;51.40;;;;;;5074492;28;20522;-13
2023/01/11 13:09:58;;;;;;;8.48;5.05;;;14.50;51.10;;;;;;5073851;28;20052;-13
2023/01/11 13:12:46;;;;;;;9.45;5.07;;;14.40;50.70;;;;;;5073852;28;20020;-12
2023/01/11 13:15:11;;;;;;;6.53;4.38;;;14.40;52.60;;;;;;5073695;28;20115;-12
2023/01/11 13:17:49;;;;;;;6.53;4.20;;;14.40;51.40;;;;;;5073948;28;20128;-13
2023/01/11 13:20:23;;;;;;;9.23;4.97;;;14.30;51.90;;;;;;5073482;28;20060;-13
2023/01/11 13:23:28;;;;;;;6.38;4.22;;;14.40;51.90;;;;;;5073607;28;20039;-13
2023/01/11 13:25:55;;;;;;;7.13;5.03;;;14.40;52.10;;;;;;5051113;28;20053;-12
2023/01/11 13:28:29;;;;;;;7.45;4.80;;;14.30;50.90;;;;;;5034846;28;20041;-12
2023/01/11 13:30:55;;;;;;;9.10;5.25;;;14.30;51.50;;;;;;5051154;28;20087;-13
2023/01/11 13:33:23;;;;;;;9.27;4.72;;;14.20;51.50;;;;;;5034535;28;20029;-14
2023/01/11 13:35:53;;;;;;;7.78;4.47;;;14.00;51.00;;;;;;5051382;28;20021;-13
2023/01/11 13:38:30;;;;;;;8.50;5.32;;;14.00;52.50;;;;;;5050440;28;20037;-12
2023/01/11 13:41:22;;;;;;;9.52;4.82;;;14.00;51.30;;;;;;5051265;28;20045;-13